createdAt,value
2023-03-02T00:01:09.494Z,3.30
2023-03-02T00:03:39.895Z,3.30
2023-03-02T00:06:09.029Z,3.30
2023-03-02T00:08:36.301Z,3.30
2023-03-02T00:11:03.122Z,3.30
2023-03-02T00:13:30.309Z,3.40
2023-03-02T00:15:57.225Z,3.30
2023-03-02T00:18:24.260Z,3.30
2023-03-02T00:20:53.479Z,3.30
2023-03-02T00:23:22.708Z,3.30
2023-03-02T00:25:49.503Z,3.30
2023-03-02T00:28:18.854Z,3.30
2023-03-02T00:30:45.705Z,3.30
2023-03-02T00:33:12.501Z,3.30
2023-03-02T00:35:40.326Z,3.30
2023-03-02T00:38:07.439Z,3.30
2023-03-02T00:40:36.719Z,3.20
2023-03-02T00:43:03.786Z,3.20
2023-03-02T00:45:30.669Z,2.90
2023-03-02T00:47:59.909Z,2.60
2023-03-02T00:50:26.657Z,2.80
2023-03-02T00:52:53.412Z,2.80
2023-03-02T00:55:22.841Z,2.80
2023-03-02T00:57:56.014Z,2.90
2023-03-02T01:00:23.245Z,2.90
2023-03-02T01:02:53.178Z,3.00
2023-03-02T01:05:20.058Z,2.90
2023-03-02T01:07:46.991Z,2.90
2023-03-02T01:10:16.920Z,2.90
2023-03-02T01:12:48.470Z,2.80
2023-03-02T01:15:19.898Z,2.80
2023-03-02T01:17:46.825Z,2.80
2023-03-02T01:20:13.902Z,2.90
2023-03-02T01:22:40.750Z,2.90
2023-03-02T01:25:07.894Z,2.90
2023-03-02T01:27:34.645Z,2.90
2023-03-02T01:30:03.810Z,2.90
2023-03-02T01:32:35.206Z,2.90
2023-03-02T01:35:01.979Z,2.90
2023-03-02T01:37:28.753Z,2.90
2023-03-02T01:39:55.550Z,2.90
2023-03-02T01:42:24.804Z,2.90
2023-03-02T01:44:57.100Z,2.80
2023-03-02T01:47:26.718Z,2.80
2023-03-02T01:49:57.564Z,2.80
2023-03-02T01:52:24.430Z,2.80
2023-03-02T01:54:51.882Z,2.80
2023-03-02T01:57:23.276Z,2.80
2023-03-02T01:59:51.022Z,2.80
2023-03-02T02:02:22.327Z,2.80
2023-03-02T02:04:49.130Z,2.80
2023-03-02T02:07:15.978Z,2.80
2023-03-02T02:09:47.385Z,2.80
2023-03-02T02:12:18.193Z,2.80
2023-03-02T02:14:45.061Z,2.80
2023-03-02T02:17:12.433Z,2.80
2023-03-02T02:19:50.728Z,2.80
2023-03-02T02:22:22.506Z,2.80
2023-03-02T02:24:57.373Z,2.80
2023-03-02T02:27:29.822Z,2.70
2023-03-02T02:29:58.276Z,2.70
2023-03-02T02:32:28.284Z,2.60
2023-03-02T02:35:11.320Z,2.60
2023-03-02T02:37:42.821Z,2.50
2023-03-02T02:40:21.218Z,2.50
2023-03-02T02:42:48.856Z,2.50
2023-03-02T02:45:24.592Z,2.60
2023-03-02T02:47:51.521Z,2.60
2023-03-02T02:50:20.813Z,2.50
2023-03-02T02:52:49.380Z,2.50
2023-03-02T02:55:16.627Z,2.50
2023-03-02T02:57:43.388Z,2.50
2023-03-02T03:00:12.223Z,2.60
2023-03-02T03:02:43.646Z,2.60
2023-03-02T03:05:14.542Z,2.60
2023-03-02T03:07:43.507Z,2.70
2023-03-02T03:10:19.466Z,2.70
2023-03-02T03:12:46.611Z,2.70
2023-03-02T03:15:13.360Z,2.70
2023-03-02T03:17:40.944Z,2.70
2023-03-02T03:20:09.294Z,2.80
2023-03-02T03:22:38.820Z,2.80
2023-03-02T03:25:08.115Z,2.90
2023-03-02T03:27:34.959Z,2.90
2023-03-02T03:30:02.087Z,2.90
2023-03-02T03:32:29.107Z,3.00
2023-03-02T03:34:58.087Z,3.00
2023-03-02T03:37:25.208Z,3.10
2023-03-02T03:39:52.017Z,3.10
2023-03-02T03:42:18.877Z,3.20
2023-03-02T03:44:48.302Z,3.20
2023-03-02T03:47:15.061Z,3.20
2023-03-02T03:49:41.844Z,3.20
2023-03-02T03:52:08.636Z,3.20
2023-03-02T03:54:35.435Z,3.30
2023-03-02T03:57:02.221Z,3.30
2023-03-02T03:59:31.217Z,3.30
2023-03-02T04:01:59.374Z,3.30
2023-03-02T04:04:31.191Z,3.40
2023-03-02T04:06:57.948Z,3.40
2023-03-02T04:09:28.244Z,3.40
2023-03-02T04:11:58.874Z,3.40
2023-03-02T04:14:25.773Z,3.40
2023-03-02T04:16:57.189Z,3.40
2023-03-02T04:19:24.222Z,3.40
2023-03-02T04:21:52.650Z,3.40
2023-03-02T04:24:20.220Z,3.40
2023-03-02T04:26:49.128Z,3.40
2023-03-02T04:29:16.224Z,3.40
2023-03-02T04:31:43.160Z,3.50
2023-03-02T04:34:10.093Z,3.50
2023-03-02T04:36:41.445Z,3.50
2023-03-02T04:39:08.309Z,3.50
2023-03-02T04:41:37.574Z,3.50
2023-03-02T04:44:04.559Z,3.50
2023-03-02T04:46:34.703Z,3.50
2023-03-02T04:49:04.404Z,3.50
2023-03-02T04:51:33.193Z,3.50
2023-03-02T04:54:02.119Z,3.50
2023-03-02T04:56:31.644Z,3.50
2023-03-02T04:59:01.848Z,3.50
2023-03-02T05:01:30.872Z,3.60
2023-03-02T05:03:57.671Z,3.50
2023-03-02T05:06:25.267Z,3.50
2023-03-02T05:08:52.933Z,3.50
2023-03-02T05:11:24.897Z,3.50
2023-03-02T05:13:53.247Z,3.50
2023-03-02T05:16:22.281Z,3.50
2023-03-02T05:18:51.697Z,3.40
2023-03-02T05:21:18.701Z,3.40
2023-03-02T05:23:50.243Z,3.40
2023-03-02T05:26:20.041Z,3.30
2023-03-02T05:28:46.879Z,3.30
2023-03-02T05:31:19.441Z,3.30
2023-03-02T05:33:48.772Z,3.30
2023-03-02T05:36:18.929Z,3.40
2023-03-02T05:38:46.301Z,3.30
2023-03-02T05:41:16.546Z,3.30
2023-03-02T05:43:45.577Z,3.40
2023-03-02T05:46:12.392Z,3.40
2023-03-02T05:48:42.567Z,3.40
2023-03-02T05:51:09.378Z,3.40
2023-03-02T05:53:38.319Z,3.40
2023-03-02T05:56:08.428Z,3.40
2023-03-02T05:58:37.744Z,3.40
2023-03-02T06:01:08.405Z,3.40
2023-03-02T06:03:37.324Z,3.40
2023-03-02T06:06:06.614Z,3.40
2023-03-02T06:08:41.008Z,3.50
2023-03-02T06:11:08.319Z,3.40
2023-03-02T06:13:35.188Z,3.50
2023-03-02T06:16:04.120Z,3.50
2023-03-02T06:18:33.192Z,3.50
2023-03-02T06:21:02.627Z,3.50
2023-03-02T06:23:31.622Z,3.50
2023-03-02T06:25:59.058Z,3.60
2023-03-02T06:28:26.072Z,3.60
2023-03-02T06:30:52.856Z,3.60
2023-03-02T06:33:21.230Z,3.60
2023-03-02T06:35:48.417Z,3.60
2023-03-02T06:38:17.441Z,3.60
2023-03-02T06:40:44.296Z,3.60
2023-03-02T06:43:11.282Z,3.60
2023-03-02T06:45:38.317Z,3.60
2023-03-02T06:48:05.455Z,3.60
2023-03-02T06:50:32.450Z,3.60
2023-03-02T06:52:59.315Z,3.60
2023-03-02T06:55:30.794Z,3.60
2023-03-02T06:57:57.658Z,3.60
2023-03-02T07:00:28.092Z,3.60
2023-03-02T07:02:58.053Z,3.60
2023-03-02T07:05:27.258Z,3.60
2023-03-02T07:07:54.035Z,3.70
2023-03-02T07:10:23.059Z,3.60
2023-03-02T07:12:52.786Z,3.60
2023-03-02T07:15:22.358Z,3.60
2023-03-02T07:17:49.132Z,3.60
2023-03-02T07:20:19.820Z,3.60
2023-03-02T07:22:49.630Z,3.60
2023-03-02T07:25:16.543Z,3.60
2023-03-02T07:27:43.328Z,3.60
2023-03-02T07:30:10.828Z,3.60
2023-03-02T07:32:37.851Z,3.50
2023-03-02T07:35:05.182Z,3.60
2023-03-02T07:37:31.949Z,3.60
2023-03-02T07:40:01.201Z,3.60
2023-03-02T07:42:30.492Z,3.60
2023-03-02T07:44:57.276Z,3.60
2023-03-02T07:47:24.080Z,3.70
2023-03-02T07:49:53.047Z,3.60
2023-03-02T07:52:19.822Z,3.60
2023-03-02T07:54:46.572Z,3.60
2023-03-02T07:57:16.257Z,3.60
2023-03-02T07:59:43.532Z,3.60
2023-03-02T08:02:12.866Z,3.60
2023-03-02T08:04:44.422Z,3.70
2023-03-02T08:07:11.218Z,3.70
2023-03-02T08:09:43.222Z,3.70
2023-03-02T08:12:10.103Z,3.70
2023-03-02T08:14:37.453Z,3.70
2023-03-02T08:17:05.503Z,3.70
2023-03-02T08:19:34.866Z,3.70
2023-03-02T08:22:02.292Z,3.70
2023-03-02T08:24:29.098Z,3.70
2023-03-02T08:26:56.041Z,3.70
2023-03-02T08:29:24.533Z,3.80
2023-03-02T08:31:53.613Z,3.80
2023-03-02T08:34:20.475Z,3.80
2023-03-02T08:36:47.311Z,3.90
2023-03-02T08:39:14.177Z,3.90
2023-03-02T08:41:45.698Z,3.90
2023-03-02T08:44:14.693Z,3.90
2023-03-02T08:46:44.028Z,4.00
2023-03-02T08:49:10.851Z,3.90
2023-03-02T08:51:37.633Z,4.00
2023-03-02T08:54:04.560Z,4.00
2023-03-02T08:56:33.864Z,4.00
2023-03-02T08:59:05.547Z,4.00
2023-03-02T09:01:34.060Z,4.00
2023-03-02T09:04:01.383Z,4.00
2023-03-02T09:06:28.887Z,4.00
2023-03-02T09:08:55.826Z,4.00
2023-03-02T09:11:22.581Z,4.00
2023-03-02T09:13:49.369Z,4.00
2023-03-02T09:16:20.273Z,4.00
2023-03-02T09:18:53.177Z,4.00
2023-03-02T09:21:22.578Z,4.00
2023-03-02T09:23:53.738Z,4.00
2023-03-02T09:26:20.694Z,3.90
2023-03-02T09:28:52.973Z,4.00
2023-03-02T09:31:20.018Z,4.00
2023-03-02T09:33:46.840Z,4.10
2023-03-02T09:36:18.868Z,4.10
2023-03-02T09:38:45.752Z,4.10
2023-03-02T09:41:21.920Z,4.00
2023-03-02T09:43:51.046Z,4.00
2023-03-02T09:46:26.989Z,4.00
2023-03-02T09:49:06.330Z,4.00
2023-03-02T09:51:39.927Z,4.00
2023-03-02T09:54:14.083Z,4.00
2023-03-02T09:56:46.433Z,4.00
2023-03-02T09:59:24.491Z,4.00
2023-03-02T10:02:18.470Z,3.90
2023-03-02T10:04:47.370Z,3.90
2023-03-02T10:07:16.586Z,4.00
2023-03-02T10:09:45.578Z,3.90
2023-03-02T10:12:21.658Z,4.00
2023-03-02T10:15:18.480Z,4.00
2023-03-02T10:18:00.438Z,4.00
2023-03-02T10:20:52.983Z,4.00
2023-03-02T10:23:19.764Z,4.00
2023-03-02T10:25:58.374Z,4.10
2023-03-02T10:28:31.911Z,4.00
2023-03-02T10:31:12.439Z,4.00
2023-03-02T10:33:39.693Z,4.00
2023-03-02T10:36:11.612Z,4.00
2023-03-02T10:38:43.171Z,3.90
2023-03-02T10:41:10.739Z,3.80
2023-03-02T10:43:42.826Z,3.90
2023-03-02T10:46:10.566Z,4.00
2023-03-02T10:48:50.491Z,4.00
2023-03-02T10:51:23.456Z,4.20
2023-03-02T10:53:50.298Z,4.30
2023-03-02T10:56:21.035Z,4.30
2023-03-02T10:58:47.881Z,4.40
2023-03-02T11:01:18.570Z,4.40
2023-03-02T11:04:03.332Z,4.50
2023-03-02T11:06:33.689Z,4.60
2023-03-02T11:09:06.473Z,4.60
2023-03-02T11:11:38.052Z,4.70
2023-03-02T11:14:09.569Z,4.60
2023-03-02T11:16:36.431Z,4.60
2023-03-02T11:19:35.868Z,4.60
2023-03-02T11:22:26.609Z,4.60
2023-03-02T11:24:55.164Z,4.40
2023-03-02T11:27:25.332Z,4.40
2023-03-02T11:30:18.542Z,4.30
2023-03-02T11:32:51.942Z,4.40
2023-03-02T11:35:27.809Z,4.50
2023-03-02T11:37:58.207Z,4.50
2023-03-02T11:40:47.246Z,4.60
2023-03-02T11:43:14.243Z,4.70
2023-03-02T11:45:48.686Z,4.80
2023-03-02T11:48:25.468Z,4.80
2023-03-02T11:50:55.008Z,4.80
2023-03-02T11:53:21.824Z,4.80
2023-03-02T11:55:51.150Z,4.80
2023-03-02T11:58:25.420Z,4.80
2023-03-02T12:00:54.509Z,4.80
2023-03-02T12:03:28.429Z,4.70
2023-03-02T12:06:01.101Z,4.80
2023-03-02T12:08:35.503Z,4.80
2023-03-02T12:11:17.629Z,4.80
2023-03-02T12:14:25.262Z,4.70
2023-03-02T12:16:52.263Z,4.80
2023-03-02T12:19:29.305Z,4.70
2023-03-02T12:22:02.192Z,4.80
2023-03-02T12:24:32.853Z,4.80
2023-03-02T12:27:25.810Z,4.80
2023-03-02T12:30:10.532Z,4.70
2023-03-02T12:32:37.548Z,4.70
2023-03-02T12:35:13.386Z,4.70
2023-03-02T12:38:21.744Z,4.80
2023-03-02T12:41:32.735Z,4.70
2023-03-02T12:44:14.373Z,4.80
2023-03-02T12:46:45.045Z,4.80
2023-03-02T12:49:35.595Z,4.80
2023-03-02T12:52:04.041Z,4.70
2023-03-02T12:54:32.518Z,4.70
2023-03-02T12:57:09.002Z,4.70
2023-03-02T12:59:38.376Z,4.70
2023-03-02T13:02:22.064Z,4.80
2023-03-02T13:05:03.515Z,4.70
2023-03-02T13:07:36.570Z,4.80
2023-03-02T13:10:09.079Z,4.70
2023-03-02T13:12:37.558Z,4.70
2023-03-02T13:15:12.039Z,4.80
2023-03-02T13:17:41.030Z,4.80
2023-03-02T13:20:08.414Z,4.80
2023-03-02T13:22:35.210Z,4.80
2023-03-02T13:25:03.844Z,4.70
2023-03-02T13:27:31.054Z,4.80
2023-03-02T13:30:11.644Z,4.80
2023-03-02T13:32:44.151Z,4.80
2023-03-02T13:35:24.420Z,4.90
2023-03-02T13:37:58.426Z,4.90
2023-03-02T13:40:31.281Z,4.90
2023-03-02T13:42:58.208Z,4.90
2023-03-02T13:45:26.202Z,4.90
2023-03-02T13:47:53.712Z,4.90
2023-03-02T13:50:28.332Z,4.90
2023-03-02T13:53:01.605Z,4.90
2023-03-02T13:55:33.006Z,4.90
2023-03-02T13:58:01.902Z,4.90
2023-03-02T14:00:35.325Z,4.90
2023-03-02T14:03:04.692Z,4.90
2023-03-02T14:05:33.549Z,4.90
2023-03-02T14:08:00.834Z,4.90
2023-03-02T14:10:32.216Z,4.90
2023-03-02T14:13:06.171Z,4.90
2023-03-02T14:15:42.686Z,4.90
2023-03-02T14:18:35.444Z,4.90
2023-03-02T14:21:02.281Z,4.90
2023-03-02T14:23:29.197Z,4.90
2023-03-02T14:26:00.638Z,4.90
2023-03-02T14:28:35.684Z,4.90
2023-03-02T14:31:02.511Z,4.90
2023-03-02T14:33:29.362Z,4.90
2023-03-02T14:35:57.124Z,4.90
2023-03-02T14:38:24.556Z,4.80
2023-03-02T14:40:51.421Z,4.80
2023-03-02T14:43:18.715Z,4.80
2023-03-02T14:45:45.778Z,4.80
2023-03-02T14:48:12.649Z,4.80
2023-03-02T14:50:45.571Z,4.80
2023-03-02T14:53:17.643Z,4.80
2023-03-02T14:55:44.448Z,4.80
2023-03-02T14:58:17.003Z,4.90
2023-03-02T15:00:44.037Z,4.90
2023-03-02T15:03:15.788Z,4.90
2023-03-02T15:05:51.727Z,4.80
2023-03-02T15:08:25.943Z,4.70
2023-03-02T15:10:55.383Z,4.70
2023-03-02T15:13:22.223Z,4.70
2023-03-02T15:15:52.797Z,4.70
2023-03-02T15:18:22.272Z,4.70
2023-03-02T15:20:49.096Z,4.80
2023-03-02T15:23:15.842Z,4.80
2023-03-02T15:25:43.129Z,4.90
2023-03-02T15:28:12.227Z,4.80
2023-03-02T15:30:39.132Z,4.80
2023-03-02T15:33:08.483Z,4.80
2023-03-02T15:35:37.960Z,4.80
2023-03-02T15:38:04.919Z,4.80
2023-03-02T15:40:34.262Z,4.80
2023-03-02T15:43:03.532Z,4.70
2023-03-02T15:45:30.359Z,4.70
2023-03-02T15:47:57.571Z,4.60
2023-03-02T15:50:26.561Z,4.60
2023-03-02T15:52:53.383Z,4.70
2023-03-02T15:55:22.616Z,4.60
2023-03-02T15:57:49.466Z,4.60
2023-03-02T16:00:21.579Z,4.60
2023-03-02T16:02:49.738Z,4.60
2023-03-02T16:05:19.171Z,4.60
2023-03-02T16:07:45.974Z,4.60
2023-03-02T16:10:16.541Z,4.60
2023-03-02T16:12:45.879Z,4.60
2023-03-02T16:15:14.776Z,4.60
2023-03-02T16:17:44.141Z,4.60
2023-03-02T16:20:11.624Z,4.60
2023-03-02T16:22:40.551Z,4.60
2023-03-02T16:25:09.938Z,4.60
2023-03-02T16:27:41.175Z,4.50
2023-03-02T16:30:08.724Z,4.60
2023-03-02T16:32:35.610Z,4.50
2023-03-02T16:35:02.467Z,4.50
2023-03-02T16:37:32.060Z,4.50
2023-03-02T16:39:58.923Z,4.40
2023-03-02T16:42:30.546Z,4.40
2023-03-02T16:44:57.296Z,4.50
2023-03-02T16:47:24.091Z,4.40
2023-03-02T16:49:50.936Z,4.40
2023-03-02T16:52:18.494Z,4.40
2023-03-02T16:54:45.369Z,4.40
2023-03-02T16:57:14.350Z,4.40
2023-03-02T16:59:41.193Z,4.40
2023-03-02T17:02:10.199Z,4.30
2023-03-02T17:04:37.374Z,4.30
2023-03-02T17:07:08.926Z,4.30
2023-03-02T17:09:36.244Z,4.30
2023-03-02T17:12:03.581Z,4.30
2023-03-02T17:14:30.405Z,4.30
2023-03-02T17:16:57.181Z,4.30
2023-03-02T17:19:24.552Z,4.20
2023-03-02T17:21:53.426Z,4.20
2023-03-02T17:24:20.185Z,4.20
2023-03-02T17:26:47.472Z,4.10
2023-03-02T17:29:14.240Z,4.10
2023-03-02T17:31:41.167Z,4.10
2023-03-02T17:34:07.934Z,4.10
2023-03-02T17:36:37.072Z,4.10
2023-03-02T17:39:04.249Z,4.00
2023-03-02T17:41:34.583Z,4.00
2023-03-02T17:44:02.060Z,4.00
2023-03-02T17:46:29.060Z,4.00
2023-03-02T17:48:59.504Z,4.00
2023-03-02T17:51:28.987Z,3.90
2023-03-02T17:53:55.933Z,3.90
2023-03-02T17:56:26.005Z,3.80
2023-03-02T17:58:56.311Z,3.80
2023-03-02T18:01:23.316Z,3.80
2023-03-02T18:03:50.284Z,3.70
2023-03-02T18:06:20.779Z,3.70
2023-03-02T18:08:48.803Z,3.70
2023-03-02T18:11:19.797Z,3.70
2023-03-02T18:13:48.936Z,3.70
2023-03-02T18:16:15.818Z,3.60
2023-03-02T18:18:44.969Z,3.60
2023-03-02T18:21:13.987Z,3.60
2023-03-02T18:23:42.057Z,3.60
2023-03-02T18:26:08.906Z,3.60
2023-03-02T18:28:35.681Z,3.60
2023-03-02T18:31:04.613Z,3.60
2023-03-02T18:33:31.628Z,3.70
2023-03-02T18:35:59.177Z,3.70
2023-03-02T18:38:30.922Z,3.50
2023-03-02T18:41:06.338Z,3.50
2023-03-02T18:43:36.855Z,3.40
2023-03-02T18:46:04.338Z,3.40
2023-03-02T18:48:31.901Z,3.30
2023-03-02T18:51:03.810Z,3.30
2023-03-02T18:53:33.013Z,3.30
2023-03-02T18:56:02.300Z,3.40
2023-03-02T18:58:34.111Z,3.30
2023-03-02T19:01:01.220Z,3.30
2023-03-02T19:03:28.095Z,3.30
2023-03-02T19:05:58.251Z,3.30
2023-03-02T19:08:25.210Z,3.40
2023-03-02T19:10:54.635Z,3.40
2023-03-02T19:13:23.936Z,3.30
2023-03-02T19:15:51.577Z,3.30
2023-03-02T19:18:21.982Z,3.30
2023-03-02T19:20:51.820Z,3.20
2023-03-02T19:23:18.681Z,3.00
2023-03-02T19:25:47.707Z,2.90
2023-03-02T19:28:14.610Z,2.90
2023-03-02T19:30:45.987Z,2.90
2023-03-02T19:33:12.871Z,2.90
2023-03-02T19:35:39.708Z,3.00
2023-03-02T19:38:06.715Z,2.80
2023-03-02T19:40:34.514Z,2.80
2023-03-02T19:43:02.660Z,2.80
2023-03-02T19:45:32.391Z,2.90
2023-03-02T19:48:05.791Z,2.90
2023-03-02T19:50:32.917Z,2.90
2023-03-02T19:53:02.180Z,3.00
2023-03-02T19:55:31.946Z,3.00
2023-03-02T19:58:02.549Z,3.00
2023-03-02T20:00:35.402Z,3.00
2023-03-02T20:03:02.392Z,3.10
2023-03-02T20:05:31.463Z,3.00
2023-03-02T20:07:58.255Z,2.90
2023-03-02T20:10:30.258Z,2.80
2023-03-02T20:12:59.603Z,2.80
2023-03-02T20:15:30.446Z,2.80
2023-03-02T20:18:02.354Z,2.70
2023-03-02T20:20:36.769Z,2.70
2023-03-02T20:23:04.651Z,2.60
2023-03-02T20:25:34.256Z,2.60
2023-03-02T20:28:05.478Z,2.60
2023-03-02T20:30:47.663Z,2.60
2023-03-02T20:33:17.152Z,2.60
2023-03-02T20:35:47.043Z,2.70
2023-03-02T20:38:17.510Z,2.80
2023-03-02T20:40:46.635Z,2.70
2023-03-02T20:43:13.399Z,2.60
2023-03-02T20:45:40.522Z,2.50
2023-03-02T20:48:09.832Z,2.40
2023-03-02T20:50:36.800Z,2.40
2023-03-02T20:53:03.987Z,2.30
2023-03-02T20:55:33.356Z,2.30
2023-03-02T20:58:01.200Z,2.30
2023-03-02T21:00:29.118Z,2.30
2023-03-02T21:02:57.182Z,2.40
2023-03-02T21:05:24.560Z,2.50
2023-03-02T21:07:51.617Z,2.50
2023-03-02T21:10:24.343Z,2.50
2023-03-02T21:12:51.313Z,2.50
2023-03-02T21:15:20.154Z,2.50
2023-03-02T21:17:47.171Z,2.50
2023-03-02T21:20:18.434Z,2.50
2023-03-02T21:22:45.759Z,2.40
2023-03-02T21:25:12.637Z,2.30
2023-03-02T21:27:40.215Z,2.20
2023-03-02T21:30:12.941Z,2.00
2023-03-02T21:32:41.283Z,2.00
2023-03-02T21:35:10.527Z,2.00
2023-03-02T21:37:37.390Z,2.00
2023-03-02T21:40:05.133Z,2.10
2023-03-02T21:42:34.132Z,2.10
2023-03-02T21:45:03.419Z,2.30
2023-03-02T21:47:30.198Z,2.10
2023-03-02T21:49:59.460Z,2.20
2023-03-02T21:52:28.689Z,2.20
2023-03-02T21:54:55.534Z,2.10
2023-03-02T21:57:24.582Z,2.10
2023-03-02T21:59:54.719Z,2.00
2023-03-02T22:02:23.678Z,1.90
2023-03-02T22:04:50.459Z,1.80
2023-03-02T22:07:17.261Z,1.70
2023-03-02T22:09:44.061Z,1.80
2023-03-02T22:12:16.216Z,1.80
2023-03-02T22:14:45.473Z,1.70
2023-03-02T22:17:19.042Z,1.70
2023-03-02T22:19:45.988Z,1.70
2023-03-02T22:22:31.121Z,1.80
2023-03-02T22:25:00.105Z,1.70
2023-03-02T22:27:34.730Z,1.80
2023-03-02T22:30:01.686Z,1.80
2023-03-02T22:32:29.437Z,1.80
2023-03-02T22:34:57.669Z,1.70
2023-03-02T22:37:33.218Z,1.50
2023-03-02T22:40:25.856Z,1.40
2023-03-02T22:42:56.693Z,1.30
2023-03-02T22:45:23.561Z,1.20
2023-03-02T22:47:52.589Z,1.10
2023-03-02T22:50:19.391Z,1.20
2023-03-02T22:52:46.142Z,1.20
2023-03-02T22:55:33.441Z,1.20
2023-03-02T22:58:07.296Z,1.30
2023-03-02T23:00:35.740Z,1.30
2023-03-02T23:03:02.598Z,1.40
2023-03-02T23:05:33.898Z,1.40
2023-03-02T23:08:15.405Z,1.40
2023-03-02T23:10:42.528Z,1.40
2023-03-02T23:13:14.315Z,1.40
2023-03-02T23:15:41.627Z,1.50
2023-03-02T23:18:22.143Z,1.50
2023-03-02T23:20:54.096Z,1.50
2023-03-02T23:23:21.883Z,1.50
2023-03-02T23:25:48.766Z,1.50
2023-03-02T23:28:15.541Z,1.50
2023-03-02T23:30:42.350Z,1.50
2023-03-02T23:33:11.603Z,1.60
2023-03-02T23:35:38.547Z,1.60
2023-03-02T23:38:07.757Z,1.70
2023-03-02T23:40:35.272Z,1.50
2023-03-02T23:43:02.336Z,1.50
2023-03-02T23:45:29.149Z,1.40
2023-03-02T23:47:57.661Z,1.50
2023-03-02T23:50:24.621Z,1.50
2023-03-02T23:52:51.390Z,1.60
2023-03-02T23:55:18.588Z,1.60
2023-03-02T23:57:45.369Z,1.70
